PRIVATE WETTERSTATION BILLIGHEIM-ALLFELD                       ZURCK
Wetterdaten: Samstag, 04.02.2017
Datum Zeit Temp. A. Temp. A. min Temp. A. max Feuchte A. Luftdruck Regen Wind Richtung Richtung Sonnenschein ET Solar Taupunkt Windchill Windben Empfang
04.02.2017 00:00 4,9 C 4,9 C 5,0 C 91 % 1006,1 hPa 0,0 l/m 0,0 km/h (0 Bft) N 0 0 min 0,000 mm 0 W/m 3,6 C 4,9 C 0,0 km/h (0 Bft) 97 %
04.02.2017 00:10 4,8 C 4,8 C 4,9 C 91 % 1005,9 hPa 0,0 l/m 0,0 km/h (0 Bft) N 0 0 min 0,000 mm 0 W/m 3,5 C 4,8 C 0,0 km/h (0 Bft) 97 %
04.02.2017 00:20 4,6 C 4,6 C 4,7 C 91 % 1005,8 hPa 0,0 l/m 0,0 km/h (0 Bft) N 0 0 min 0,000 mm 0 W/m 3,3 C 4,6 C 0,0 km/h (0 Bft) 98 %
04.02.2017 00:30 4,7 C 4,6 C 4,7 C 91 % 1005,6 hPa 0,0 l/m 0,0 km/h (0 Bft) N 0 0 min 0,000 mm 0 W/m 3,4 C 4,7 C 0,0 km/h (0 Bft) 97 %
04.02.2017 00:40 4,5 C 4,5 C 4,7 C 90 % 1005,6 hPa 0,0 l/m 0,0 km/h (0 Bft) N 0 0 min 0,000 mm 0 W/m 3,0 C 4,5 C 0,0 km/h (0 Bft) 98 %
04.02.2017 00:50 4,4 C 4,4 C 4,5 C 91 % 1005,5 hPa 0,0 l/m 0,0 km/h (0 Bft) N 0 0 min 0,000 mm 0 W/m 3,1 C 4,4 C 0,0 km/h (0 Bft) 97 %
04.02.2017 01:00 4,5 C 4,4 C 4,5 C 91 % 1005,5 hPa 0,0 l/m 0,0 km/h (0 Bft) N 0 0 min 0,000 mm 0 W/m 3,2 C 4,5 C 0,0 km/h (0 Bft) 98 %
04.02.2017 01:10 4,4 C 4,4 C 4,5 C 90 % 1005,4 hPa 0,0 l/m 0,0 km/h (0 Bft) N 0 0 min 0,000 mm 0 W/m 2,9 C 4,4 C 0,0 km/h (0 Bft) 98 %
04.02.2017 01:20 3,8 C 3,8 C 4,4 C 90 % 1005,5 hPa 0,0 l/m 0,0 km/h (0 Bft) N 0 0 min 0,000 mm 0 W/m 2,3 C 3,8 C 0,0 km/h (0 Bft) 98 %
04.02.2017 01:30 3,7 C 3,5 C 3,8 C 92 % 1005,6 hPa 0,0 l/m 0,0 km/h (0 Bft) N 0 0 min 0,000 mm 0 W/m 2,5 C 3,7 C 0,0 km/h (0 Bft) 98 %
04.02.2017 01:40 4,2 C 3,7 C 4,2 C 92 % 1005,7 hPa 0,0 l/m 0,0 km/h (0 Bft) N 0 0 min 0,000 mm 0 W/m 3,0 C 4,2 C 0,0 km/h (0 Bft) 96 %
04.02.2017 01:50 4,4 C 4,2 C 4,4 C 91 % 1005,6 hPa 0,0 l/m 0,0 km/h (0 Bft) N 0 0 min 0,000 mm 0 W/m 3,1 C 4,4 C 0,0 km/h (0 Bft) 98 %
04.02.2017 02:00 4,6 C 4,4 C 4,6 C 90 % 1005,6 hPa 0,0 l/m 0,0 km/h (0 Bft) N 0 0 min 0,000 mm 0 W/m 3,1 C 4,6 C 0,0 km/h (0 Bft) 97 %
04.02.2017 02:10 4,6 C 4,6 C 4,7 C 89 % 1005,7 hPa 0,0 l/m 0,0 km/h (0 Bft) N 0 0 min 0,000 mm 0 W/m 2,9 C 4,6 C 0,0 km/h (0 Bft) 97 %
04.02.2017 02:20 4,5 C 4,5 C 4,6 C 89 % 1005,7 hPa 0,0 l/m 0,0 km/h (0 Bft) N 0 0 min 0,000 mm 0 W/m 2,8 C 4,5 C 0,0 km/h (0 Bft) 98 %
04.02.2017 02:30 4,1 C 4,1 C 4,5 C 89 % 1006,0 hPa 0,0 l/m 0,0 km/h (0 Bft) N 0 0 min 0,000 mm 0 W/m 2,5 C 4,1 C 0,0 km/h (0 Bft) 98 %
04.02.2017 02:40 3,8 C 3,8 C 4,1 C 91 % 1006,2 hPa 0,0 l/m 0,0 km/h (0 Bft) N 0 0 min 0,000 mm 0 W/m 2,5 C 3,8 C 0,0 km/h (0 Bft) 98 %
04.02.2017 02:50 3,9 C 3,8 C 3,9 C 91 % 1006,2 hPa 0,0 l/m 0,0 km/h (0 Bft) N 0 0 min 0,000 mm 0 W/m 2,6 C 3,9 C 0,0 km/h (0 Bft) 98 %
04.02.2017 03:00 4,0 C 3,9 C 4,0 C 91 % 1006,2 hPa 0,0 l/m 0,0 km/h (0 Bft) N 0 0 min 0,000 mm 0 W/m 2,7 C 4,0 C 0,0 km/h (0 Bft) 98 %
04.02.2017 03:10 4,3 C 4,0 C 4,3 C 90 % 1006,2 hPa 0,0 l/m 8,0 km/h (2 Bft) S 180 0 min 0,000 mm 0 W/m 2,8 C 2,9 C 17,7 km/h (3 Bft) 97 %
04.02.2017 03:20 4,4 C 4,3 C 4,4 C 89 % 1006,1 hPa 0,0 l/m 6,4 km/h (2 Bft) S 180 0 min 0,000 mm 0 W/m 2,7 C 4,4 C 14,5 km/h (3 Bft) 98 %
04.02.2017 03:30 4,3 C 4,3 C 4,4 C 89 % 1005,9 hPa 0,0 l/m 3,2 km/h (1 Bft) S 180 0 min 0,000 mm 0 W/m 2,7 C 4,3 C 11,3 km/h (2 Bft) 97 %
04.02.2017 03:40 4,1 C 4,1 C 4,3 C 89 % 1005,8 hPa 0,0 l/m 3,2 km/h (1 Bft) S 180 0 min 0,000 mm 0 W/m 2,5 C 4,1 C 9,7 km/h (2 Bft) 98 %
04.02.2017 03:50 3,8 C 3,8 C 4,1 C 89 % 1005,8 hPa 0,0 l/m 3,2 km/h (1 Bft) S 180 0 min 0,000 mm 0 W/m 2,2 C 3,8 C 8,0 km/h (2 Bft) 98 %
04.02.2017 04:00 3,7 C 3,6 C 3,8 C 90 % 1005,7 hPa 0,0 l/m 3,2 km/h (1 Bft) S 180 0 min 0,000 mm 0 W/m 2,2 C 3,7 C 6,4 km/h (2 Bft) 98 %
04.02.2017 04:10 3,9 C 3,8 C 3,9 C 88 % 1005,6 hPa 0,0 l/m 1,6 km/h (1 Bft) S-SO 157 0 min 0,000 mm 0 W/m 2,1 C 3,9 C 6,4 km/h (2 Bft) 97 %
04.02.2017 04:20 3,9 C 3,8 C 3,9 C 89 % 1005,5 hPa 0,0 l/m 3,2 km/h (1 Bft) S-SO 157 0 min 0,000 mm 0 W/m 2,3 C 3,9 C 6,4 km/h (2 Bft) 98 %
04.02.2017 04:30 3,8 C 3,8 C 3,9 C 88 % 1005,5 hPa 0,0 l/m 0,0 km/h (0 Bft) S-SO 157 0 min 0,000 mm 0 W/m 2,0 C 3,8 C 4,8 km/h (1 Bft) 97 %
04.02.2017 04:40 3,8 C 3,8 C 3,8 C 89 % 1005,4 hPa 0,0 l/m 0,0 km/h (0 Bft) S-SO 157 0 min 0,000 mm 0 W/m 2,2 C 3,8 C 4,8 km/h (1 Bft) 98 %
04.02.2017 04:50 4,2 C 3,8 C 4,2 C 87 % 1005,0 hPa 0,0 l/m 3,2 km/h (1 Bft) SO 135 0 min 0,000 mm 0 W/m 2,2 C 4,2 C 8,0 km/h (2 Bft) 98 %
04.02.2017 05:00 4,3 C 4,2 C 4,3 C 86 % 1005,1 hPa 0,0 l/m 1,6 km/h (1 Bft) SO 135 0 min 0,000 mm 0 W/m 2,2 C 4,3 C 8,0 km/h (2 Bft) 98 %
04.02.2017 05:10 3,9 C 3,9 C 4,3 C 86 % 1005,0 hPa 0,0 l/m 0,0 km/h (0 Bft) N 0 0 min 0,000 mm 0 W/m 1,8 C 3,9 C 0,0 km/h (0 Bft) 98 %
04.02.2017 05:20 3,6 C 3,6 C 3,9 C 88 % 1004,8 hPa 0,0 l/m 0,0 km/h (0 Bft) N 0 0 min 0,000 mm 0 W/m 1,8 C 3,6 C 0,0 km/h (0 Bft) 98 %
04.02.2017 05:30 3,2 C 3,2 C 3,6 C 87 % 1004,9 hPa 0,0 l/m 0,0 km/h (0 Bft) N 0 0 min 0,000 mm 0 W/m 1,2 C 3,2 C 0,0 km/h (0 Bft) 97 %
04.02.2017 05:40 3,1 C 3,1 C 3,2 C 88 % 1004,9 hPa 0,0 l/m 0,0 km/h (0 Bft) N 0 0 min 0,000 mm 0 W/m 1,3 C 3,1 C 0,0 km/h (0 Bft) 98 %
04.02.2017 05:50 2,6 C 2,6 C 3,1 C 90 % 1004,9 hPa 0,0 l/m 0,0 km/h (0 Bft) S-SO 157 0 min 0,000 mm 0 W/m 1,1 C 2,6 C 1,6 km/h (1 Bft) 98 %
04.02.2017 06:00 2,4 C 2,4 C 2,6 C 89 % 1005,1 hPa 0,0 l/m 0,0 km/h (0 Bft) N 0 0 min 0,000 mm 0 W/m 0,8 C 2,4 C 0,0 km/h (0 Bft) 98 %
04.02.2017 06:10 2,1 C 2,1 C 2,4 C 90 % 1004,9 hPa 0,0 l/m 0,0 km/h (0 Bft) N 0 0 min 0,000 mm 0 W/m 0,6 C 2,1 C 0,0 km/h (0 Bft) 98 %
04.02.2017 06:20 1,8 C 1,8 C 2,1 C 91 % 1004,9 hPa 0,0 l/m 0,0 km/h (0 Bft) N 0 0 min 0,000 mm 0 W/m 0,5 C 1,8 C 0,0 km/h (0 Bft) 97 %
04.02.2017 06:30 1,8 C 1,8 C 1,8 C 91 % 1004,8 hPa 0,0 l/m 0,0 km/h (0 Bft) N 0 0 min 0,000 mm 0 W/m 0,5 C 1,8 C 0,0 km/h (0 Bft) 98 %
04.02.2017 06:40 1,6 C 1,6 C 1,8 C 91 % 1004,6 hPa 0,0 l/m 0,0 km/h (0 Bft) N 0 0 min 0,000 mm 0 W/m 0,3 C 1,6 C 0,0 km/h (0 Bft) 96 %
04.02.2017 06:50 1,3 C 1,3 C 1,6 C 91 % 1004,5 hPa 0,0 l/m 0,0 km/h (0 Bft) N 0 0 min 0,000 mm 0 W/m -0,0 C 1,3 C 0,0 km/h (0 Bft) 98 %
04.02.2017 07:00 0,8 C 0,8 C 1,3 C 91 % 1004,4 hPa 0,0 l/m 0,0 km/h (0 Bft) N 0 0 min 0,000 mm 0 W/m -0,5 C 0,8 C 0,0 km/h (0 Bft) 98 %
04.02.2017 07:10 0,2 C 0,2 C 0,8 C 91 % 1004,4 hPa 0,0 l/m 0,0 km/h (0 Bft) S-SO 157 0 min 0,000 mm 0 W/m -1,1 C 0,2 C 4,8 km/h (1 Bft) 98 %
04.02.2017 07:20 -0,1 C -0,1 C 0,2 C 92 % 1004,2 hPa 0,0 l/m 0,0 km/h (0 Bft) SO 135 0 min 0,000 mm 0 W/m -1,2 C -0,1 C 1,6 km/h (1 Bft) 98 %
04.02.2017 07:30 -0,1 C -0,1 C 0,0 C 92 % 1004,2 hPa 0,0 l/m 0,0 km/h (0 Bft) N 0 0 min 0,000 mm 0 W/m -1,2 C -0,1 C 0,0 km/h (0 Bft) 87 %
04.02.2017 07:40 -0,4 C -0,4 C -0,1 C 92 % 1004,1 hPa 0,0 l/m 0,0 km/h (0 Bft) SO 135 0 min 0,000 mm 0 W/m -1,5 C -0,4 C 3,2 km/h (1 Bft) 97 %
04.02.2017 07:50 -0,6 C -0,6 C -0,4 C 92 % 1004,0 hPa 0,0 l/m 0,0 km/h (0 Bft) SO 135 0 min 0,000 mm 5 W/m -1,7 C -0,6 C 3,2 km/h (1 Bft) 98 %
04.02.2017 08:00 -0,6 C -0,6 C -0,6 C 92 % 1004,0 hPa 0,0 l/m 0,0 km/h (0 Bft) N 0 0 min 0,000 mm 7 W/m -1,7 C -0,6 C 0,0 km/h (0 Bft) 97 %
04.02.2017 08:10 -0,6 C -0,6 C -0,6 C 92 % 1004,1 hPa 0,0 l/m 0,0 km/h (0 Bft) N 0 0 min 0,000 mm 18 W/m -1,7 C -0,6 C 0,0 km/h (0 Bft) 97 %
04.02.2017 08:20 -0,6 C -0,6 C -0,6 C 92 % 1004,0 hPa 0,0 l/m 0,0 km/h (0 Bft) N 0 0 min 0,000 mm 26 W/m -1,7 C -0,6 C 0,0 km/h (0 Bft) 98 %
04.02.2017 08:30 -0,4 C -0,6 C -0,4 C 92 % 1004,1 hPa 0,0 l/m 0,0 km/h (0 Bft) SO 135 0 min 0,000 mm 33 W/m -1,5 C -0,4 C 1,6 km/h (1 Bft) 97 %
04.02.2017 08:40 -0,2 C -0,4 C -0,2 C 92 % 1004,1 hPa 0,0 l/m 1,6 km/h (1 Bft) SO 135 0 min 0,000 mm 40 W/m -1,3 C -0,2 C 4,8 km/h (1 Bft) 100 %
04.02.2017 08:50 -0,1 C -0,2 C -0,1 C 92 % 1004,0 hPa 0,0 l/m 1,6 km/h (1 Bft) N-NO 22 0 min 0,000 mm 53 W/m -1,2 C -0,1 C 4,8 km/h (1 Bft) 99 %
04.02.2017 09:00 0,1 C -0,1 C 0,1 C 92 % 1004,0 hPa 0,0 l/m 1,6 km/h (1 Bft) N 360 0 min 0,000 mm 62 W/m -1,0 C 0,1 C 4,8 km/h (1 Bft) 100 %
04.02.2017 09:10 0,3 C 0,1 C 0,3 C 92 % 1003,8 hPa 0,0 l/m 1,6 km/h (1 Bft) N-NW 337 0 min 0,000 mm 63 W/m -0,8 C 0,3 C 4,8 km/h (1 Bft) 100 %
04.02.2017 09:20 0,4 C 0,3 C 0,4 C 92 % 1003,6 hPa 0,0 l/m 0,0 km/h (0 Bft) N 0 0 min 0,000 mm 69 W/m -0,7 C 0,4 C 0,0 km/h (0 Bft) 100 %
04.02.2017 09:40 1,1 C 0,3 C 1,1 C 92 % 1003,2 hPa 0,0 l/m 0,0 km/h (0 Bft) N-NW 343 0 min 0,000 mm 93 W/m -0,1 C 1,1 C 1,6 km/h (1 Bft) 97 %
04.02.2017 09:50 1,4 C 1,1 C 1,4 C 92 % 1003,2 hPa 0,0 l/m 0,0 km/h (0 Bft) NO 39 0 min 0,000 mm 107 W/m 0,2 C 1,4 C 0,0 km/h (0 Bft) 98 %
04.02.2017 10:00 1,7 C 1,4 C 1,7 C 92 % 1003,0 hPa 0,0 l/m 0,2 km/h (0 Bft) O-NO 76 0 min 0,025 mm 135 W/m 0,5 C 1,7 C 4,8 km/h (1 Bft) 97 %
04.02.2017 10:10 2,3 C 1,7 C 2,3 C 92 % 1002,7 hPa 0,0 l/m 0,6 km/h (0 Bft) O-SO 114 10 min 0,000 mm 163 W/m 1,1 C 2,3 C 4,8 km/h (1 Bft) 98 %
04.02.2017 10:20 3,2 C 2,3 C 3,2 C 92 % 1002,4 hPa 0,0 l/m 0,9 km/h (0 Bft) O-NO 67 10 min 0,000 mm 197 W/m 2,0 C 3,2 C 8,0 km/h (2 Bft) 98 %
04.02.2017 10:30 3,8 C 3,2 C 3,8 C 91 % 1002,2 hPa 0,0 l/m 0,6 km/h (0 Bft) S-SO 161 10 min 0,000 mm 165 W/m 2,5 C 3,8 C 8,0 km/h (2 Bft) 97 %
04.02.2017 10:40 4,3 C 3,8 C 4,3 C 89 % 1002,2 hPa 0,0 l/m 0,1 km/h (0 Bft) S-SO 160 10 min 0,000 mm 163 W/m 2,7 C 4,3 C 3,2 km/h (1 Bft) 97 %
04.02.2017 10:50 4,7 C 4,3 C 4,7 C 86 % 1001,9 hPa 0,0 l/m 1,7 km/h (1 Bft) O 94 10 min 0,000 mm 156 W/m 2,6 C 4,7 C 8,0 km/h (2 Bft) 98 %
04.02.2017 11:00 5,1 C 4,7 C 5,1 C 85 % 1001,7 hPa 0,0 l/m 2,0 km/h (1 Bft) O-SO 111 0 min 0,077 mm 130 W/m 2,8 C 5,1 C 9,7 km/h (2 Bft) 97 %
04.02.2017 11:10 5,3 C 5,1 C 5,3 C 83 % 1001,4 hPa 0,0 l/m 2,6 km/h (1 Bft) O 85 0 min 0,000 mm 141 W/m 2,7 C 5,3 C 9,7 km/h (2 Bft) 97 %
04.02.2017 11:20 5,5 C 5,3 C 5,5 C 83 % 1001,6 hPa 0,0 l/m 1,6 km/h (1 Bft) O-SO 113 10 min 0,000 mm 153 W/m 2,8 C 5,5 C 9,7 km/h (2 Bft) 98 %
04.02.2017 11:30 5,7 C 5,5 C 5,7 C 82 % 1001,6 hPa 0,0 l/m 1,5 km/h (1 Bft) O 96 10 min 0,000 mm 188 W/m 2,9 C 5,7 C 6,4 km/h (2 Bft) 97 %
04.02.2017 11:40 6,0 C 5,7 C 6,0 C 81 % 1001,6 hPa 0,0 l/m 2,0 km/h (1 Bft) SO 132 10 min 0,000 mm 200 W/m 3,0 C 6,0 C 9,7 km/h (2 Bft) 98 %
04.02.2017 11:50 6,3 C 6,0 C 6,3 C 81 % 1001,5 hPa 0,0 l/m 2,0 km/h (1 Bft) S-SO 162 10 min 0,000 mm 213 W/m 3,3 C 6,3 C 9,7 km/h (2 Bft) 98 %
04.02.2017 12:00 6,6 C 6,3 C 6,6 C 80 % 1001,1 hPa 0,0 l/m 1,0 km/h (0 Bft) S 179 10 min 0,076 mm 165 W/m 3,4 C 6,6 C 9,7 km/h (2 Bft) 98 %
04.02.2017 12:10 6,8 C 6,6 C 6,8 C 79 % 1000,9 hPa 0,0 l/m 2,2 km/h (1 Bft) O 87 10 min 0,000 mm 220 W/m 3,4 C 6,8 C 9,7 km/h (2 Bft) 97 %
04.02.2017 12:20 7,1 C 6,8 C 7,1 C 79 % 1000,8 hPa 0,0 l/m 3,3 km/h (1 Bft) SW 216 10 min 0,000 mm 211 W/m 3,7 C 7,1 C 11,3 km/h (2 Bft) 97 %
04.02.2017 12:30 7,4 C 7,1 C 7,4 C 80 % 1000,6 hPa 0,0 l/m 3,3 km/h (1 Bft) S-SW 196 10 min 0,000 mm 197 W/m 4,2 C 7,4 C 8,0 km/h (2 Bft) 98 %
04.02.2017 12:40 7,6 C 7,4 C 7,6 C 80 % 1000,4 hPa 0,0 l/m 1,1 km/h (1 Bft) SO 145 10 min 0,000 mm 169 W/m 4,4 C 7,6 C 8,0 km/h (2 Bft) 98 %
04.02.2017 12:50 7,8 C 7,6 C 7,8 C 79 % 1000,4 hPa 0,0 l/m 1,4 km/h (1 Bft) S-SW 213 0 min 0,000 mm 137 W/m 4,4 C 7,8 C 6,4 km/h (2 Bft) 98 %
04.02.2017 13:00 7,9 C 7,8 C 7,9 C 78 % 1000,3 hPa 0,0 l/m 1,3 km/h (1 Bft) S-SW 207 0 min 0,076 mm 146 W/m 4,3 C 7,9 C 8,0 km/h (2 Bft) 97 %
04.02.2017 13:10 7,9 C 7,8 C 7,9 C 77 % 1000,2 hPa 0,0 l/m 2,7 km/h (1 Bft) S-SW 212 0 min 0,000 mm 123 W/m 4,1 C 7,9 C 8,0 km/h (2 Bft) 98 %
04.02.2017 13:20 7,9 C 7,9 C 7,9 C 78 % 1000,1 hPa 0,0 l/m 0,7 km/h (0 Bft) S-SW 209 0 min 0,000 mm 120 W/m 4,3 C 7,9 C 8,0 km/h (2 Bft) 97 %
04.02.2017 13:30 7,8 C 7,8 C 7,9 C 78 % 999,9 hPa 0,0 l/m 0,0 km/h (0 Bft) S-SW 205 0 min 0,000 mm 121 W/m 4,2 C 7,8 C 0,0 km/h (0 Bft) 97 %
04.02.2017 13:40 7,8 C 7,8 C 7,8 C 78 % 999,8 hPa 0,0 l/m 0,4 km/h (0 Bft) S-SW 207 0 min 0,000 mm 98 W/m 4,2 C 7,8 C 4,8 km/h (1 Bft) 98 %
04.02.2017 13:50 7,7 C 7,7 C 7,8 C 78 % 999,7 hPa 0,0 l/m 0,6 km/h (0 Bft) S-SW 208 0 min 0,000 mm 86 W/m 4,1 C 7,7 C 6,4 km/h (2 Bft) 97 %
04.02.2017 14:00 7,6 C 7,6 C 7,7 C 77 % 999,7 hPa 0,0 l/m 0,5 km/h (0 Bft) S-SW 206 0 min 0,051 mm 76 W/m 3,8 C 7,6 C 4,8 km/h (1 Bft) 98 %
04.02.2017 14:10 7,5 C 7,5 C 7,6 C 78 % 999,6 hPa 0,0 l/m 0,0 km/h (0 Bft) S-SW 208 0 min 0,000 mm 62 W/m 3,9 C 7,5 C 1,6 km/h (1 Bft) 91 %
04.02.2017 14:20 7,4 C 7,4 C 7,5 C 77 % 999,4 hPa 0,0 l/m 0,0 km/h (0 Bft) S-SW 208 0 min 0,000 mm 69 W/m 3,6 C 7,4 C 1,6 km/h (1 Bft) 95 %
04.02.2017 14:30 7,4 C 7,4 C 7,4 C 78 % 999,7 hPa 0,0 l/m 0,0 km/h (0 Bft) SW 218 0 min 0,000 mm 53 W/m 3,8 C 7,4 C 4,8 km/h (1 Bft) 97 %
04.02.2017 14:40 7,3 C 7,3 C 7,4 C 78 % 1000,1 hPa 0,0 l/m 7,2 km/h (2 Bft) S-SW 194 0 min 0,000 mm 35 W/m 3,7 C 6,7 C 14,5 km/h (3 Bft) 98 %
04.02.2017 14:50 7,0 C 7,0 C 7,3 C 78 % 999,9 hPa 0,0 l/m 0,8 km/h (0 Bft) S-SW 194 0 min 0,000 mm 44 W/m 3,4 C 7,0 C 8,0 km/h (2 Bft) 98 %
04.02.2017 15:00 6,8 C 6,8 C 7,0 C 79 % 999,8 hPa 0,0 l/m 0,0 km/h (0 Bft) S-SW 192 0 min 0,025 mm 37 W/m 3,4 C 6,8 C 1,6 km/h (1 Bft) 97 %
04.02.2017 15:10 6,8 C 6,8 C 6,8 C 82 % 999,6 hPa 0,0 l/m 1,2 km/h (1 Bft) NW 325 0 min 0,000 mm 49 W/m 3,9 C 6,8 C 11,3 km/h (2 Bft) 98 %
04.02.2017 15:20 6,7 C 6,7 C 6,8 C 85 % 999,1 hPa 0,0 l/m 0,6 km/h (0 Bft) N-NW 340 0 min 0,000 mm 114 W/m 4,4 C 6,7 C 4,8 km/h (1 Bft) 97 %
04.02.2017 15:30 6,7 C 6,7 C 6,7 C 85 % 999,0 hPa 0,0 l/m 0,6 km/h (0 Bft) N-NW 340 0 min 0,000 mm 102 W/m 4,4 C 6,7 C 3,2 km/h (1 Bft) 97 %
04.02.2017 15:40 6,7 C 6,7 C 6,7 C 84 % 998,6 hPa 0,0 l/m 2,7 km/h (1 Bft) N-NO 24 10 min 0,000 mm 156 W/m 4,2 C 6,7 C 6,4 km/h (2 Bft) 98 %
04.02.2017 15:50 6,8 C 6,7 C 6,8 C 84 % 998,6 hPa 0,0 l/m 2,2 km/h (1 Bft) N-NO 26 0 min 0,000 mm 32 W/m 4,3 C 6,8 C 6,4 km/h (2 Bft) 97 %
04.02.2017 16:00 6,7 C 6,7 C 6,8 C 83 % 998,8 hPa 0,0 l/m 0,6 km/h (0 Bft) N-NO 26 0 min 0,026 mm 16 W/m 4,0 C 6,7 C 3,2 km/h (1 Bft) 98 %
04.02.2017 16:10 6,8 C 6,7 C 6,8 C 82 % 998,9 hPa 0,0 l/m 0,1 km/h (0 Bft) O-NO 65 0 min 0,000 mm 21 W/m 3,9 C 6,8 C 4,8 km/h (1 Bft) 97 %
04.02.2017 16:20 6,9 C 6,7 C 6,9 C 80 % 999,0 hPa 0,0 l/m 1,4 km/h (1 Bft) O 98 0 min 0,000 mm 19 W/m 3,7 C 6,9 C 8,0 km/h (2 Bft) 98 %
04.02.2017 16:30 7,0 C 6,9 C 7,0 C 80 % 998,8 hPa 0,0 l/m 0,9 km/h (0 Bft) O-SO 102 0 min 0,000 mm 23 W/m 3,8 C 7,0 C 8,0 km/h (2 Bft) 97 %
04.02.2017 16:40 7,1 C 7,0 C 7,1 C 80 % 998,7 hPa 0,0 l/m 0,3 km/h (0 Bft) O 94 0 min 0,000 mm 26 W/m 3,9 C 7,1 C 4,8 km/h (1 Bft) 97 %
04.02.2017 16:50 7,1 C 7,1 C 7,1 C 80 % 998,8 hPa 0,0 l/m 2,4 km/h (1 Bft) O 80 0 min 0,000 mm 12 W/m 3,9 C 7,1 C 11,3 km/h (2 Bft) 97 %
04.02.2017 17:00 7,2 C 7,1 C 7,2 C 81 % 998,8 hPa 0,0 l/m 6,0 km/h (2 Bft) SO 145 0 min 0,025 mm 5 W/m 4,2 C 7,2 C 17,7 km/h (3 Bft) 97 %
04.02.2017 17:10 7,1 C 7,1 C 7,2 C 81 % 998,6 hPa 0,0 l/m 3,7 km/h (1 Bft) SO 138 0 min 0,000 mm 0 W/m 4,1 C 7,1 C 11,3 km/h (2 Bft) 98 %
04.02.2017 17:20 7,0 C 7,0 C 7,1 C 81 % 998,8 hPa 0,0 l/m 3,0 km/h (1 Bft) SO 143 0 min 0,000 mm 0 W/m 4,0 C 7,0 C 9,7 km/h (2 Bft) 97 %
04.02.2017 17:30 6,9 C 6,9 C 7,0 C 81 % 998,7 hPa 0,0 l/m 0,5 km/h (0 Bft) SO 145 0 min 0,000 mm 0 W/m 3,9 C 6,9 C 4,8 km/h (1 Bft) 98 %
04.02.2017 17:40 6,9 C 6,8 C 6,9 C 80 % 998,6 hPa 0,0 l/m 2,8 km/h (1 Bft) O-SO 119 0 min 0,000 mm 0 W/m 3,7 C 6,9 C 16,1 km/h (3 Bft) 97 %
04.02.2017 17:50 7,0 C 6,9 C 7,0 C 80 % 998,6 hPa 0,2 l/m 2,1 km/h (1 Bft) SO 136 0 min 0,000 mm 0 W/m 3,8 C 7,0 C 8,0 km/h (2 Bft) 90 %
04.02.2017 18:00 7,1 C 7,0 C 7,1 C 82 % 998,8 hPa 0,0 l/m 8,2 km/h (2 Bft) S 184 0 min 0,000 mm 0 W/m 4,2 C 5,7 C 19,3 km/h (3 Bft) 98 %
04.02.2017 18:10 7,1 C 7,1 C 7,2 C 83 % 999,0 hPa 0,0 l/m 10,8 km/h (2 Bft) S-SO 158 0 min 0,000 mm 0 W/m 4,4 C 3,9 C 24,1 km/h (4 Bft) 97 %
04.02.2017 18:20 6,8 C 6,8 C 7,1 C 84 % 999,1 hPa 0,2 l/m 8,0 km/h (2 Bft) S-SO 163 0 min 0,000 mm 0 W/m 4,3 C 5,5 C 17,7 km/h (3 Bft) 98 %
04.02.2017 18:30 6,6 C 6,6 C 6,8 C 85 % 999,2 hPa 0,0 l/m 11,0 km/h (2 Bft) S-SO 166 0 min 0,000 mm 0 W/m 4,3 C 3,2 C 27,4 km/h (4 Bft) 97 %
04.02.2017 18:40 6,4 C 6,4 C 6,6 C 86 % 999,3 hPa 0,0 l/m 13,1 km/h (3 Bft) S-SW 192 0 min 0,000 mm 0 W/m 4,2 C 1,7 C 27,4 km/h (4 Bft) 98 %
04.02.2017 18:50 6,3 C 6,3 C 6,4 C 87 % 999,3 hPa 0,0 l/m 13,7 km/h (3 Bft) S 179 0 min 0,000 mm 0 W/m 4,3 C 1,3 C 32,2 km/h (5 Bft) 98 %
04.02.2017 19:00 6,2 C 6,2 C 6,3 C 87 % 999,3 hPa 0,0 l/m 14,5 km/h (3 Bft) S-SO 167 0 min 0,025 mm 0 W/m 4,2 C 0,8 C 38,6 km/h (5 Bft) 97 %
04.02.2017 19:10 6,1 C 6,1 C 6,2 C 87 % 999,2 hPa 0,2 l/m 13,0 km/h (3 Bft) S-SO 150 0 min 0,000 mm 0 W/m 4,1 C 1,5 C 25,7 km/h (4 Bft) 98 %
04.02.2017 19:20 6,1 C 6,1 C 6,1 C 87 % 999,5 hPa 0,0 l/m 14,7 km/h (3 Bft) S 187 0 min 0,000 mm 0 W/m 4,1 C 0,6 C 29,0 km/h (5 Bft) 97 %
04.02.2017 19:30 5,8 C 5,8 C 6,1 C 89 % 999,6 hPa 0,0 l/m 13,0 km/h (3 Bft) S 182 0 min 0,000 mm 0 W/m 4,1 C 1,1 C 25,7 km/h (4 Bft) 97 %
04.02.2017 19:40 5,6 C 5,6 C 5,8 C 90 % 999,8 hPa 0,2 l/m 13,5 km/h (3 Bft) S-SO 168 0 min 0,000 mm 0 W/m 4,1 C 0,6 C 29,0 km/h (5 Bft) 97 %
04.02.2017 19:50 5,4 C 5,4 C 5,6 C 91 % 999,8 hPa 0,2 l/m 11,4 km/h (2 Bft) S-SW 198 0 min 0,000 mm 0 W/m 4,1 C 1,6 C 22,5 km/h (4 Bft) 97 %
04.02.2017 20:00 5,3 C 5,3 C 5,5 C 91 % 999,9 hPa 0,2 l/m 11,9 km/h (2 Bft) S-SW 198 0 min 0,026 mm 0 W/m 4,0 C 1,2 C 20,9 km/h (4 Bft) 90 %
04.02.2017 20:10 5,2 C 5,2 C 5,3 C 91 % 1000,0 hPa 0,4 l/m 10,1 km/h (2 Bft) S 190 0 min 0,000 mm 0 W/m 3,9 C 2,2 C 19,3 km/h (3 Bft) 97 %
04.02.2017 20:20 5,1 C 5,1 C 5,2 C 92 % 1000,2 hPa 0,2 l/m 11,6 km/h (2 Bft) S-SW 211 0 min 0,000 mm 0 W/m 3,9 C 1,1 C 30,6 km/h (5 Bft) 98 %
04.02.2017 20:30 5,1 C 5,1 C 5,1 C 92 % 1000,4 hPa 0,2 l/m 14,3 km/h (3 Bft) SO 140 0 min 0,000 mm 0 W/m 3,9 C -0,4 C 29,0 km/h (5 Bft) 97 %
04.02.2017 20:40 5,1 C 5,1 C 5,1 C 92 % 1000,5 hPa 0,0 l/m 14,8 km/h (3 Bft) S 188 0 min 0,000 mm 0 W/m 3,9 C -0,7 C 30,6 km/h (5 Bft) 98 %
04.02.2017 20:50 5,1 C 5,1 C 5,1 C 92 % 1000,9 hPa 0,0 l/m 15,2 km/h (3 Bft) SW 221 0 min 0,000 mm 0 W/m 3,9 C -0,9 C 27,4 km/h (4 Bft) 97 %
04.02.2017 21:00 5,0 C 5,0 C 5,1 C 92 % 1001,0 hPa 0,0 l/m 19,1 km/h (3 Bft) W 259 0 min 0,000 mm 0 W/m 3,8 C -2,8 C 38,6 km/h (5 Bft) 97 %
04.02.2017 21:10 4,9 C 4,9 C 5,1 C 91 % 1001,1 hPa 0,2 l/m 20,9 km/h (4 Bft) SW 225 0 min 0,000 mm 0 W/m 3,6 C -3,7 C 40,2 km/h (6 Bft) 100 %
04.02.2017 21:20 4,8 C 4,8 C 4,9 C 91 % 1001,2 hPa 0,2 l/m 20,9 km/h (4 Bft) SW 225 0 min 0,000 mm 0 W/m 3,5 C -3,8 C 41,8 km/h (6 Bft) 99 %
04.02.2017 21:30 4,7 C 4,7 C 4,8 C 91 % 1001,3 hPa 0,0 l/m 19,3 km/h (3 Bft) SW 225 0 min 0,000 mm 0 W/m 3,4 C -3,3 C 37,0 km/h (5 Bft) 100 %
04.02.2017 21:40 4,7 C 4,7 C 4,7 C 91 % 1001,4 hPa 0,0 l/m 22,5 km/h (4 Bft) S-SW 202 0 min 0,000 mm 0 W/m 3,4 C -4,5 C 45,1 km/h (6 Bft) 100 %
04.02.2017 21:50 4,6 C 4,6 C 4,7 C 91 % 1001,6 hPa 0,0 l/m 22,5 km/h (4 Bft) SW 225 0 min 0,000 mm 0 W/m 3,3 C -4,6 C 48,3 km/h (6 Bft) 100 %
04.02.2017 22:00 4,6 C 4,6 C 4,6 C 91 % 1001,6 hPa 0,0 l/m 17,7 km/h (3 Bft) SW 225 0 min 0,025 mm 0 W/m 3,3 C -2,7 C 41,8 km/h (6 Bft) 100 %
04.02.2017 22:10 4,6 C 4,6 C 4,6 C 91 % 1002,0 hPa 0,0 l/m 25,7 km/h (4 Bft) SW 225 0 min 0,000 mm 0 W/m 3,3 C -5,7 C 51,5 km/h (7 Bft) 91 %
04.02.2017 22:20 4,6 C 4,6 C 4,6 C 91 % 1002,1 hPa 0,0 l/m 20,9 km/h (4 Bft) SW 225 0 min 0,000 mm 0 W/m 3,3 C -4,0 C 51,5 km/h (7 Bft) 100 %
04.02.2017 22:30 4,6 C 4,6 C 4,6 C 90 % 1002,3 hPa 0,0 l/m 20,9 km/h (4 Bft) SW 225 0 min 0,000 mm 0 W/m 3,1 C -4,0 C 41,8 km/h (6 Bft) 100 %
04.02.2017 22:40 4,6 C 4,6 C 4,6 C 90 % 1002,4 hPa 0,0 l/m 22,5 km/h (4 Bft) SW 225 0 min 0,000 mm 0 W/m 3,1 C -4,6 C 45,1 km/h (6 Bft) 100 %
04.02.2017 22:50 4,6 C 4,6 C 4,6 C 90 % 1002,6 hPa 0,0 l/m 22,5 km/h (4 Bft) SW 225 0 min 0,000 mm 0 W/m 3,1 C -4,6 C 38,6 km/h (5 Bft) 100 %
04.02.2017 23:00 4,6 C 4,6 C 4,6 C 90 % 1002,6 hPa 0,0 l/m 19,3 km/h (3 Bft) SW 225 0 min 0,025 mm 0 W/m 3,1 C -3,4 C 40,2 km/h (6 Bft) 100 %
04.02.2017 23:10 4,6 C 4,6 C 4,6 C 90 % 1003,0 hPa 0,0 l/m 17,7 km/h (3 Bft) SW 225 0 min 0,000 mm 0 W/m 3,1 C -2,7 C 43,5 km/h (6 Bft) 100 %
04.02.2017 23:20 4,6 C 4,6 C 4,6 C 90 % 1003,1 hPa 0,0 l/m 22,5 km/h (4 Bft) SW 225 0 min 0,000 mm 0 W/m 3,1 C -4,6 C 46,7 km/h (6 Bft) 100 %
04.02.2017 23:30 4,6 C 4,6 C 4,6 C 90 % 1003,3 hPa 0,0 l/m 17,7 km/h (3 Bft) SW 225 0 min 0,000 mm 0 W/m 3,1 C -2,7 C 41,8 km/h (6 Bft) 100 %
04.02.2017 23:40 4,5 C 4,5 C 4,6 C 90 % 1003,4 hPa 0,2 l/m 17,7 km/h (3 Bft) SW 225 0 min 0,000 mm 0 W/m 3,0 C -2,8 C 35,4 km/h (5 Bft) 100 %
04.02.2017 23:50 4,5 C 4,4 C 4,5 C 90 % 1003,4 hPa 0,0 l/m 17,7 km/h (3 Bft) SW 225 0 min 0,000 mm 0 W/m 3,0 C -2,8 C 38,6 km/h (5 Bft) 100 %
_ Min-Zeit 07:50 07:50 08:00 13:10 15:40 - 00:00 - - - - - 07:50 22:10 00:00 07:30
Minimum _ -0,6 C -0,6 C -0,6 C 77 % 998,6 hPa - 0,0 km/h (0 Bft) - - - - - -1,7 C -5,7 C 0,0 km/h (0 Bft) 87 %
_ Max-Zeit 13:00 13:20 13:00 01:30 02:40 20:10 22:10 - - 10:10 11:00 12:10 18:10 13:00 22:10 08:40
Maximum _ 7,9 C 7,9 C 7,9 C 92 % 1006,2 hPa 0,4 l/m 25,7 km/h
SW (4 Bft)
- - 10 min 0,077 mm 220 W/m 4,4 C 7,9 C 51,5 km/h
SW (7 Bft)
100 %
Durchschnitt _ 4,6 C 4,5 C 4,7 C 87 % 1002,4 hPa #2,6 l/m 4,9 km/h (1 Bft) SW - #2:30 h #0,482 mm 97 W/m 2,6 C 3,0 C 12,2 km/h (2 Bft) 98 %
PRIVATE WETTERSTATION BILLIGHEIM-ALLFELD - www.neckar-odenwald-wetter.de - Holger Sonntag